Time;durP1;ratioP1;P1;durP2;ratioP2;P2;SDS_P1;SDS_P2;PMS_P1;PMS_P2;Temp;Humidity;BMP_temperature;BMP_pressure;BME280_temperature;BME280_humidity;BME280_pressure;Samples;Min_cycle;Max_cycle;Signal;HPM_P1;HPM_P2
2022/04/04 00:02:17;;;;;;;0.98;0.90;;;;;;;4.14;68.49;101981.72;5094453;27;124762;-35
2022/04/04 00:04:43;;;;;;;1.45;1.08;;;;;;;4.16;68.92;101979.91;5095440;27;96802;-35
2022/04/04 00:07:08;;;;;;;1.05;0.75;;;;;;;4.13;67.90;101974.59;5095816;27;96808;-35
2022/04/04 00:09:33;;;;;;;0.98;0.80;;;;;;;4.03;70.62;101960.47;5095264;27;115485;-35
2022/04/04 00:11:59;;;;;;;2.75;1.38;;;;;;;4.06;69.44;101941.63;5095042;27;99351;-35
2022/04/04 00:14:24;;;;;;;1.20;0.88;;;;;;;4.09;68.66;101946.94;5094894;27;116395;-35
2022/04/04 00:16:50;;;;;;;1.45;0.98;;;;;;;4.10;70.45;101945.13;5095357;27;96834;-35
2022/04/04 00:19:15;;;;;;;0.82;0.75;;;;;;;4.07;69.80;101938.03;5095048;27;97892;-35
2022/04/04 00:21:44;;;;;;;1.88;1.20;;;;;;;4.02;69.16;101923.81;5094359;27;126482;-35
2022/04/04 00:24:09;;;;;;;0.98;0.75;;;;;;;4.03;69.46;101928.28;5095352;27;96662;-35
2022/04/04 00:26:35;;;;;;;2.88;1.98;;;;;;;4.07;69.23;101931.78;5094105;27;122306;-35
2022/04/04 00:29:00;;;;;;;1.45;1.08;;;;;;;4.09;69.91;101929.97;5095277;27;97879;-35
2022/04/04 00:31:26;;;;;;;1.50;0.90;;;;;;;4.05;69.06;101918.41;5094901;27;99243;-35
2022/04/04 00:33:51;;;;;;;1.25;0.90;;;;;;;3.98;70.16;101909.59;5095513;27;96615;-35
2022/04/04 00:36:17;;;;;;;7.78;1.08;;;;;;;4.00;70.87;101913.16;5094529;27;118764;-35
2022/04/04 00:38:42;;;;;;;2.15;1.45;;;;;;;4.03;69.83;101914.88;5095133;27;97553;-35
2022/04/04 00:41:10;;;;;;;0.70;0.70;;;;;;;4.00;69.50;101901.50;5094846;27;97214;-35
2022/04/04 00:43:36;;;;;;;0.65;0.60;;;;;;;3.99;70.69;101900.63;5075905;27;97031;-35
2022/04/04 00:46:01;;;;;;;2.30;1.73;;;;;;;3.97;70.60;101897.09;5076579;27;96754;-35
2022/04/04 00:48:27;;;;;;;0.63;0.63;;;;;;;3.96;69.99;101884.63;5094644;27;99912;-35
2022/04/04 00:50:52;;;;;;;2.53;0.98;;;;;;;4.00;69.61;101885.44;5094880;27;97980;-35
2022/04/04 00:53:17;;;;;;;6.43;1.25;;;;;;;4.11;70.28;101894.19;5094183;27;109103;-35
2022/04/04 00:55:43;;;;;;;2.30;1.08;;;;;;;4.07;69.64;101875.50;5094721;27;96733;-35
2022/04/04 00:58:09;;;;;;;1.77;1.48;;;;;;;4.14;70.31;101880.69;5093839;27;122389;-35
2022/04/04 01:00:35;;;;;;;1.25;1.15;;;;;;;4.07;69.85;101870.13;5076351;27;100987;-35
2022/04/04 01:03:01;;;;;;;2.28;1.00;;;;;;;4.08;71.04;101858.50;5075759;27;96550;-35
2022/04/04 01:05:27;;;;;;;5.10;1.58;;;;;;;4.08;71.18;101856.72;5094700;27;96776;-35
2022/04/04 01:07:52;;;;;;;3.85;1.48;;;;;;;4.14;72.02;101859.25;5075410;27;101026;-35
2022/04/04 01:10:18;;;;;;;2.17;1.33;;;;;;;4.10;70.88;101851.28;5094138;27;97860;-35
2022/04/04 01:12:54;;;;;;;2.53;1.08;;;;;;;4.19;71.91;101856.50;5094709;27;96541;-35
2022/04/04 01:15:22;;;;;;;2.17;1.30;;;;;;;4.21;71.25;101860.91;5076009;27;96683;-35
2022/04/04 01:17:48;;;;;;;1.50;1.20;;;;;;;4.21;71.45;101850.19;5075855;27;101431;-35
2022/04/04 01:20:14;;;;;;;2.35;1.42;;;;;;;4.23;71.11;101844.81;5094321;27;97744;-35
2022/04/04 01:22:40;;;;;;;1.73;1.35;;;;;;;4.23;70.92;101843.00;5075777;27;96502;-36
2022/04/04 01:25:06;;;;;;;2.58;1.25;;;;;;;4.25;70.76;101834.94;5076206;27;96837;-35
2022/04/04 01:27:31;;;;;;;9.07;1.15;;;;;;;4.28;71.74;101828.63;5094341;27;97914;-35
2022/04/04 01:29:56;;;;;;;2.13;1.75;;;;;;;4.29;70.97;101825.00;5093429;27;126679;-35
2022/04/04 01:32:22;;;;;;;1.52;1.10;;;;;;;4.22;71.36;101817.09;5093926;27;96599;-35
2022/04/04 01:34:48;;;;;;;1.08;0.95;;;;;;;4.22;71.54;101811.75;5094364;27;96781;-35
2022/04/04 01:37:13;;;;;;;2.25;1.70;;;;;;;4.26;71.46;101808.06;5075346;27;101371;-36
2022/04/04 01:39:38;;;;;;;1.85;1.75;;;;;;;4.28;72.03;101801.81;5094295;27;96945;-35
2022/04/04 01:42:05;;;;;;;1.27;0.98;;;;;;;4.24;71.76;101791.16;5094050;27;96561;-35
2022/04/04 01:44:30;;;;;;;2.58;1.42;;;;;;;4.33;71.01;101795.41;5094027;27;96925;-35
2022/04/04 01:46:55;;;;;;;2.80;1.55;;;;;;;4.24;70.77;101769.69;5094038;27;97419;-35
2022/04/04 01:49:21;;;;;;;2.85;2.13;;;;;;;4.34;71.07;101782.88;5094377;27;97916;-35
2022/04/04 01:51:46;;;;;;;2.50;2.08;;;;;;;4.35;71.72;101784.69;5092600;27;124277;-35
2022/04/04 01:54:12;;;;;;;3.05;1.98;;;;;;;4.33;72.16;101778.44;5093172;27;110963;-35
2022/04/04 01:56:37;;;;;;;1.40;0.88;;;;;;;4.28;72.92;101761.59;5093077;27;99055;-35
2022/04/04 01:59:02;;;;;;;1.70;1.13;;;;;;;4.29;71.44;101760.66;5093735;27;99129;-35
2022/04/04 02:01:28;;;;;;;3.45;1.85;;;;;;;4.34;72.25;101767.72;5093681;27;96557;-35
2022/04/04 02:03:56;;;;;;;1.17;0.98;;;;;;;4.35;70.94;101757.84;5093778;27;96814;-35
2022/04/04 02:06:22;;;;;;;2.03;1.40;;;;;;;4.33;72.26;101748.97;5075012;27;101017;-35
2022/04/04 02:08:48;;;;;;;1.85;1.42;;;;;;;4.36;71.89;101747.09;5074732;27;100852;-35
2022/04/04 02:11:16;;;;;;;4.75;1.55;;;;;;;4.31;71.75;101732.88;5074497;27;96825;-35
2022/04/04 02:13:42;;;;;;;1.80;1.55;;;;;;;4.37;72.40;101739.94;5075364;27;96789;-35
2022/04/04 02:16:08;;;;;;;1.52;1.08;;;;;;;4.32;71.85;101731.13;5073983;27;99348;-35
2022/04/04 02:18:37;;;;;;;4.70;1.98;;;;;;;4.33;71.43;101719.44;5093640;27;97377;-35
2022/04/04 02:21:03;;;;;;;2.58;1.70;;;;;;;4.38;72.97;101728.28;5074329;27;97080;-35
2022/04/04 02:23:29;;;;;;;4.82;1.73;;;;;;;4.38;71.28;101729.16;5074969;27;96779;-35
2022/04/04 02:25:56;;;;;;;1.35;1.20;;;;;;;4.34;72.72;101713.16;5093381;27;98004;-35
2022/04/04 02:28:22;;;;;;;5.78;2.10;;;;;;;4.33;72.22;101701.56;5074834;27;101803;-35
2022/04/04 02:30:51;;;;;;;2.38;1.17;;;;;;;4.40;72.11;101703.19;5074931;27;96663;-35
2022/04/04 02:33:18;;;;;;;3.28;2.13;;;;;;;4.37;71.63;101687.16;5074759;27;96778;-35
2022/04/04 02:35:44;;;;;;;1.30;1.17;;;;;;;4.38;72.00;101677.31;5093019;27;99026;-35
2022/04/04 02:38:09;;;;;;;3.50;1.73;;;;;;;4.45;71.79;101684.31;5074920;27;100807;-35
2022/04/04 02:40:35;;;;;;;3.65;2.08;;;;;;;4.43;72.47;101670.03;5093207;27;96722;-35
2022/04/04 02:43:17;;;;;;;1.40;1.13;;;;;;;4.47;72.41;101666.38;5093230;27;96786;-35
2022/04/04 02:45:42;;;;;;;1.60;1.15;;;;;;;4.45;72.22;101662.84;5074034;27;101100;-35
2022/04/04 02:48:08;;;;;;;1.70;1.52;;;;;;;4.45;72.67;101654.81;5093049;27;97812;-35
2022/04/04 02:50:34;;;;;;;2.47;1.05;;;;;;;4.49;72.88;101651.13;5092908;27;97293;-35
2022/04/04 02:53:00;;;;;;;2.95;1.52;;;;;;;4.51;72.45;101654.66;5074684;27;96843;-35
2022/04/04 02:58:09;;;;;;;1.88;1.65;;;;;;;4.47;71.88;101627.03;5092460;27;96985;-35
2022/04/04 03:00:34;;;;;;;2.45;1.75;;;;;;;4.47;72.29;101623.47;5093088;27;96551;-36
2022/04/04 03:03:00;;;;;;;1.33;1.13;;;;;;;4.47;72.62;101620.78;5093280;27;96698;-35
2022/04/04 03:05:25;;;;;;;2.70;1.95;;;;;;;4.51;72.86;101626.97;5092750;27;97874;-35
2022/04/04 03:07:51;;;;;;;1.00;0.85;;;;;;;4.47;72.10;101608.25;5092719;27;99474;-35
2022/04/04 03:10:17;;;;;;;1.70;1.30;;;;;;;4.46;72.54;101611.84;5073591;27;97533;-35
2022/04/04 03:12:48;;;;;;;2.20;1.90;;;;;;;4.49;72.39;101605.53;5074362;27;96711;-35
2022/04/04 03:15:19;;;;;;;3.05;1.73;;;;;;;4.53;72.06;101598.28;5074015;27;99132;-35
2022/04/04 03:17:48;;;;;;;2.47;1.25;;;;;;;4.54;72.23;101608.97;5092893;27;97676;-35
2022/04/04 03:20:15;;;;;;;1.75;1.40;;;;;;;4.50;71.91;101585.81;5074030;27;97240;-35
2022/04/04 03:22:43;;;;;;;2.90;1.48;;;;;;;4.56;72.51;101591.06;5074163;27;96646;-35
2022/04/04 03:25:11;;;;;;;1.95;1.23;;;;;;;4.58;71.65;101582.97;5073957;27;99554;-35
2022/04/04 03:27:37;;;;;;;6.18;2.40;;;;;;;4.54;71.80;101560.69;5095665;27;97365;-35
2022/04/04 03:30:08;;;;;;;4.60;2.47;;;;;;;4.60;71.88;101565.91;5077544;27;96623;-35
2022/04/04 03:32:34;;;;;;;6.97;1.63;;;;;;;4.62;71.83;101557.81;5096336;27;96643;-35
2022/04/04 03:35:00;;;;;;;5.68;3.20;;;;;;;4.64;71.69;101551.47;5095416;27;99581;-35
2022/04/04 03:37:33;;;;;;;3.85;1.70;;;;;;;4.61;71.97;101538.16;5077286;27;100486;-35
2022/04/04 03:39:58;;;;;;;2.20;1.67;;;;;;;4.63;73.39;101540.81;5077433;27;96607;-35
2022/04/04 03:42:24;;;;;;;3.45;1.90;;;;;;;4.61;72.87;101530.09;5095961;27;96787;-35
2022/04/04 03:44:49;;;;;;;1.00;0.77;;;;;;;4.68;72.48;101526.34;5096017;27;97903;-35
2022/04/04 03:47:15;;;;;;;3.83;2.47;;;;;;;4.68;71.50;101512.91;5096024;27;97879;-35
2022/04/04 03:49:40;;;;;;;0.38;0.38;;;;;;;4.63;71.83;101497.88;5095928;27;96740;-35
2022/04/04 03:52:06;;;;;;;1.15;0.90;;;;;;;4.73;72.39;101514.63;5095782;27;101876;-35
2022/04/04 03:54:33;;;;;;;1.42;1.30;;;;;;;4.70;71.54;101486.06;5077143;27;102250;-35
2022/04/04 03:56:58;;;;;;;2.17;1.05;;;;;;;4.77;72.71;101503.75;5076980;27;100781;-35
2022/04/04 03:59:24;;;;;;;2.63;1.63;;;;;;;4.74;71.75;101493.09;5094547;27;119445;-35
2022/04/04 04:01:49;;;;;;;4.07;1.75;;;;;;;4.72;71.51;101472.59;5095575;27;96855;-35
2022/04/04 04:04:14;;;;;;;1.90;1.27;;;;;;;4.77;71.71;101465.31;5095036;27;113929;-35
2022/04/04 04:06:40;;;;;;;5.05;2.20;;;;;;;4.75;71.25;101468.03;5095608;27;97433;-35
2022/04/04 04:09:05;;;;;;;4.35;1.70;;;;;;;4.86;71.55;101475.75;5094555;27;124273;-35
2022/04/04 04:11:30;;;;;;;1.60;1.38;;;;;;;4.84;71.24;101469.59;5094197;27;119080;-35
2022/04/04 04:13:56;;;;;;;9.50;1.85;;;;;;;4.87;70.74;101467.69;5095642;27;97955;-35
2022/04/04 04:16:23;;;;;;;1.27;1.13;;;;;;;4.90;71.55;101467.59;5096115;27;97461;-35
2022/04/04 04:18:48;;;;;;;4.15;1.90;;;;;;;4.92;71.05;101464.00;5095702;27;96694;-35
2022/04/04 04:21:14;;;;;;;2.05;1.23;;;;;;;4.80;71.68;101430.31;5095516;27;96783;-35
2022/04/04 04:23:40;;;;;;;2.13;1.67;;;;;;;4.95;70.78;101453.16;5076175;27;101182;-35
2022/04/04 04:26:07;;;;;;;1.83;1.42;;;;;;;4.90;71.50;101430.00;5076490;27;100821;-35
2022/04/04 04:28:32;;;;;;;15.98;2.08;;;;;;;4.96;71.13;101441.50;5076643;27;96551;-35
2022/04/04 04:30:59;;;;;;;5.45;1.88;;;;;;;4.95;70.85;101426.31;5095243;27;96803;-35
2022/04/04 04:33:24;;;;;;;2.22;1.52;;;;;;;4.99;70.91;101436.94;5076415;27;101029;-35
2022/04/04 04:35:50;;;;;;;1.67;1.25;;;;;;;5.00;71.03;101421.69;5095103;27;97790;-35
2022/04/04 04:38:15;;;;;;;2.83;1.65;;;;;;;5.01;71.10;101416.28;5094719;27;96511;-35
2022/04/04 04:40:41;;;;;;;4.18;1.23;;;;;;;4.99;70.63;101417.25;5095328;27;96531;-35
2022/04/04 04:43:06;;;;;;;4.05;1.83;;;;;;;4.99;71.05;101403.84;5094969;27;103726;-35
2022/04/04 04:45:31;;;;;;;3.85;1.75;;;;;;;5.01;70.94;101389.44;5095011;27;106947;-35
2022/04/04 04:47:57;;;;;;;2.42;1.45;;;;;;;5.07;70.61;101393.75;5094313;27;96496;-35
2022/04/04 04:50:24;;;;;;;3.63;1.25;;;;;;;5.06;70.28;101383.94;5094848;27;96753;-35
2022/04/04 04:52:50;;;;;;;1.73;1.30;;;;;;;5.01;70.19;101367.09;5075978;27;101125;-35
2022/04/04 04:55:18;;;;;;;0.98;0.80;;;;;;;5.09;70.58;101381.16;5076161;27;100658;-35
2022/04/04 04:57:44;;;;;;;3.20;2.13;;;;;;;5.11;70.40;101376.63;5076208;27;96681;-35
2022/04/04 05:00:13;;;;;;;2.03;1.27;;;;;;;5.16;70.63;101360.38;5076206;27;96836;-35
2022/04/04 05:02:38;;;;;;;3.10;2.25;;;;;;;5.17;70.34;101360.31;5075983;27;102314;-35
2022/04/04 05:05:07;;;;;;;1.30;1.08;;;;;;;5.20;70.00;101367.41;5094691;27;97733;-35
2022/04/04 05:07:33;;;;;;;3.00;1.73;;;;;;;5.16;70.16;101361.25;5076285;27;96647;-35
2022/04/04 05:09:58;;;;;;;4.43;1.85;;;;;;;5.20;70.20;101349.47;5076053;27;96853;-34
2022/04/04 05:12:24;;;;;;;2.05;1.30;;;;;;;5.15;70.17;101332.66;5075343;27;99579;-35
2022/04/04 05:14:49;;;;;;;4.53;2.45;;;;;;;5.22;69.83;101336.00;5093537;27;119065;-35
2022/04/04 05:17:15;;;;;;;2.03;1.60;;;;;;;5.23;69.98;101337.75;5076166;27;99601;-35
2022/04/04 05:19:41;;;;;;;3.22;1.80;;;;;;;5.19;69.86;101323.53;5075909;27;96783;-35
2022/04/04 05:22:07;;;;;;;3.83;1.98;;;;;;;5.25;70.15;101320.69;5075785;27;101067;-35
2022/04/04 05:24:33;;;;;;;2.83;1.77;;;;;;;5.20;69.61;101311.03;5094314;27;97846;-35
2022/04/04 05:26:59;;;;;;;10.55;2.67;;;;;;;5.26;69.69;101310.81;5075413;27;96836;-35
2022/04/04 05:29:26;;;;;;;5.15;1.80;;;;;;;5.21;69.75;101296.66;5094616;27;96776;-35
2022/04/04 05:31:55;;;;;;;2.58;1.48;;;;;;;5.24;69.40;101296.53;5074832;27;101169;-35
2022/04/04 05:34:22;;;;;;;4.82;2.90;;;;;;;5.25;69.60;101306.38;5075337;27;100975;-35
2022/04/04 05:36:48;;;;;;;4.68;2.67;;;;;;;5.29;69.68;101299.94;5074946;27;97646;-35
2022/04/04 05:39:14;;;;;;;8.05;2.55;;;;;;;5.32;69.62;101292.69;5075399;27;97248;-35
2022/04/04 05:41:40;;;;;;;6.18;3.60;;;;;;;5.28;69.98;101279.41;5093716;27;99480;-35
2022/04/04 05:44:06;;;;;;;2.45;1.60;;;;;;;5.32;70.08;101281.94;5075392;27;100756;-35
2022/04/04 05:46:32;;;;;;;3.85;2.45;;;;;;;5.33;69.97;101293.56;5093029;27;96697;-35
2022/04/04 05:49:00;;;;;;;3.80;2.20;;;;;;;5.38;70.36;101277.28;5074628;27;96823;-35
2022/04/04 05:51:25;;;;;;;3.00;1.58;;;;;;;5.40;70.20;101287.06;5073389;27;100759;-35
2022/04/04 05:53:51;;;;;;;3.78;1.50;;;;;;;5.38;70.38;101264.72;5093642;27;97772;-35
2022/04/04 05:56:16;;;;;;;5.53;1.85;;;;;;;5.41;70.35;101272.72;5093442;27;96556;-35
2022/04/04 05:58:41;;;;;;;3.13;2.22;;;;;;;5.44;70.62;101275.28;5093343;27;96802;-35
2022/04/04 06:01:10;;;;;;;3.17;2.05;;;;;;;5.48;70.62;101273.38;5091834;27;126526;-35
2022/04/04 06:03:35;;;;;;;3.10;2.30;;;;;;;5.39;70.89;101265.66;5093490;27;99356;-35
2022/04/04 06:06:02;;;;;;;5.18;2.70;;;;;;;5.43;70.91;101265.47;5093281;27;96864;-35
2022/04/04 06:08:28;;;;;;;23.50;2.55;;;;;;;5.48;71.13;101263.53;5075081;27;96828;-35
2022/04/04 06:10:53;;;;;;;4.93;2.58;;;;;;;5.46;71.48;101253.75;5093408;27;97607;-35
2022/04/04 06:13:19;;;;;;;5.10;2.25;;;;;;;5.45;71.35;101249.31;5092250;27;128689;-35
2022/04/04 06:15:46;;;;;;;2.70;2.20;;;;;;;5.42;72.27;101249.41;5093439;27;96436;-35
2022/04/04 06:18:13;;;;;;;4.35;2.60;;;;;;;5.44;72.22;101251.13;5075286;27;96674;-35
2022/04/04 06:20:39;;;;;;;2.33;1.77;;;;;;;5.46;72.99;101257.31;5074397;27;100922;-35
2022/04/04 06:23:04;;;;;;;4.70;2.67;;;;;;;5.43;72.69;101238.59;5074678;27;101308;-35
2022/04/04 06:25:30;;;;;;;2.95;1.90;;;;;;;5.41;73.45;101240.47;5092886;27;96571;-35
2022/04/04 06:27:55;;;;;;;2.53;2.13;;;;;;;5.44;73.87;101247.56;5093687;27;96476;-35
2022/04/04 06:30:21;;;;;;;4.32;2.13;;;;;;;5.42;73.11;101234.16;5093484;27;98174;-35
2022/04/04 06:32:46;;;;;;;4.03;2.33;;;;;;;5.42;73.28;101231.47;5093561;27;97628;-35
2022/04/04 06:35:13;;;;;;;4.95;2.25;;;;;;;5.44;73.47;101231.44;5093184;27;96542;-35
2022/04/04 06:37:39;;;;;;;3.53;2.03;;;;;;;5.41;73.99;101213.63;5074868;27;96910;-35
2022/04/04 06:40:06;;;;;;;2.22;1.88;;;;;;;5.46;74.26;101206.28;5074358;27;101196;-35
2022/04/04 06:42:36;;;;;;;1.42;1.17;;;;;;;5.42;73.71;101218.03;5074883;27;102067;-35
2022/04/04 06:45:02;;;;;;;3.38;2.28;;;;;;;5.41;73.64;101188.53;5093407;27;96588;-35
2022/04/04 06:47:27;;;;;;;3.35;1.65;;;;;;;5.40;74.61;101189.47;5074640;27;96729;-35
2022/04/04 06:49:53;;;;;;;1.98;1.50;;;;;;;5.45;74.68;101191.06;5092113;27;99307;-35
2022/04/04 06:52:19;;;;;;;2.50;1.88;;;;;;;5.41;75.29;101183.16;5092564;27;99595;-35
2022/04/04 06:54:46;;;;;;;4.65;1.55;;;;;;;5.40;75.96;101184.97;5074461;27;96749;-35
2022/04/04 06:57:11;;;;;;;4.82;2.20;;;;;;;5.40;74.71;101171.56;5074606;27;96599;-35
2022/04/04 06:59:36;;;;;;;5.47;2.30;;;;;;;5.41;75.32;101189.44;5091748;27;128460;-35
2022/04/04 07:02:02;;;;;;;2.50;1.52;;;;;;;5.41;75.05;101178.69;5094898;27;97833;-35
2022/04/04 07:04:27;;;;;;;2.78;1.77;;;;;;;5.37;76.35;101166.28;5096445;27;96874;-35
2022/04/04 07:06:52;;;;;;;3.25;1.77;;;;;;;5.46;75.43;101170.47;5096076;27;121306;-35
2022/04/04 07:09:17;;;;;;;5.18;2.53;;;;;;;5.41;75.44;101153.63;5096422;27;99330;-35
2022/04/04 07:11:43;;;;;;;2.13;1.58;;;;;;;5.44;75.38;101148.16;5095923;27;99081;-35
2022/04/04 07:14:10;;;;;;;1.70;1.48;;;;;;;5.41;75.39;101137.50;5096284;27;96511;-35
2022/04/04 07:16:35;;;;;;;6.57;2.50;;;;;;;5.46;74.92;101149.84;5077866;27;96935;-35
2022/04/04 07:19:00;;;;;;;1.90;1.33;;;;;;;5.48;75.21;101136.34;5095955;27;99533;-35
2022/04/04 07:21:28;;;;;;;13.85;2.28;;;;;;;5.46;75.70;101136.44;5095624;27;120128;-35
2022/04/04 07:23:53;;;;;;;6.10;2.40;;;;;;;5.47;76.16;101131.91;5077633;27;96564;-35
2022/04/04 07:26:21;;;;;;;1.63;1.48;;;;;;;5.45;78.06;101137.34;5096415;27;96491;-35
2022/04/04 07:28:47;;;;;;;2.78;1.75;;;;;;;5.47;76.69;101130.09;5078059;27;99294;-35
2022/04/04 07:31:14;;;;;;;4.60;1.98;;;;;;;5.40;76.57;101117.81;5096398;27;99117;-35
2022/04/04 07:33:39;;;;;;;4.93;2.67;;;;;;;5.39;76.86;101120.59;5077414;27;96696;-35
2022/04/04 07:36:05;;;;;;;8.77;2.33;;;;;;;5.48;77.43;101133.66;5095698;27;111992;-35
2022/04/04 07:38:31;;;;;;;4.25;2.38;;;;;;;5.38;78.51;101111.63;5095321;27;99403;-35
2022/04/04 07:40:56;;;;;;;6.95;1.63;;;;;;;5.37;78.70;101112.56;5077190;27;101473;-35
2022/04/04 07:43:22;;;;;;;2.08;1.40;;;;;;;5.35;78.77;101114.44;5096014;27;96619;-35
2022/04/04 07:45:49;;;;;;;2.90;1.65;;;;;;;5.43;78.47;101128.44;5095893;27;96743;-35
2022/04/04 07:48:14;;;;;;;2.13;1.70;;;;;;;5.42;78.94;101113.28;5095765;27;97994;-35
2022/04/04 07:50:41;;;;;;;5.80;2.42;;;;;;;5.43;77.50;101112.34;5095514;27;99176;-35
2022/04/04 07:53:07;;;;;;;6.18;2.65;;;;;;;5.41;79.06;101103.47;5096031;27;96555;-35
2022/04/04 07:55:33;;;;;;;4.88;2.65;;;;;;;5.44;78.49;101114.09;5096063;27;96809;-35
2022/04/04 07:57:59;;;;;;;3.03;2.35;;;;;;;5.38;77.72;101100.88;5095856;27;97916;-35
2022/04/04 08:00:24;;;;;;;2.03;1.65;;;;;;;5.40;79.93;101098.16;5096070;27;97343;-35
2022/04/04 08:02:50;;;;;;;3.78;2.00;;;;;;;5.40;78.81;101096.34;5095195;27;96589;-35
2022/04/04 08:05:19;;;;;;;1.15;0.73;;;;;;;5.39;79.78;101082.97;5095781;27;96753;-35
2022/04/04 08:07:47;;;;;;;5.30;2.25;;;;;;;5.35;78.57;101070.59;5095290;27;99442;-35
2022/04/04 08:10:15;;;;;;;3.78;1.52;;;;;;;5.36;79.83;101077.69;5076678;27;100741;-35
2022/04/04 08:12:40;;;;;;;3.38;1.30;;;;;;;5.33;79.15;101070.63;5094835;27;96593;-35
2022/04/04 08:15:06;;;;;;;1.27;0.88;;;;;;;5.36;80.57;101075.88;5095111;27;96808;-35
2022/04/04 08:17:32;;;;;;;9.18;1.90;;;;;;;5.41;79.91;101062.28;5094964;27;99666;-35
2022/04/04 08:19:57;;;;;;;1.95;1.23;;;;;;;5.36;80.66;101057.09;5095651;27;99128;-35
2022/04/04 08:22:22;;;;;;;2.03;0.90;;;;;;;5.44;80.99;101054.13;5094495;27;122261;-35
2022/04/04 08:24:49;;;;;;;1.30;0.88;;;;;;;5.36;80.45;101046.34;5095331;27;96769;-35
2022/04/04 08:27:14;;;;;;;3.78;1.45;;;;;;;5.31;80.13;101037.56;5059036;27;101151;-35
2022/04/04 08:29:40;;;;;;;3.92;1.50;;;;;;;5.35;81.37;101035.66;5076669;27;99271;-35
2022/04/04 08:32:06;;;;;;;5.38;1.30;;;;;;;5.34;80.30;101056.28;5095180;27;96595;-35
2022/04/04 08:34:32;;;;;;;2.55;1.42;;;;;;;5.37;80.76;101058.84;5095241;27;96887;-35
2022/04/04 08:36:57;;;;;;;5.38;2.08;;;;;;;5.38;80.83;101049.84;5076418;27;100743;-35
2022/04/04 08:39:23;;;;;;;1.25;0.95;;;;;;;5.36;81.12;101035.59;5095275;27;97797;-35
2022/04/04 08:41:49;;;;;;;2.78;0.90;;;;;;;5.44;80.85;101040.72;5095247;27;96667;-35
2022/04/04 08:44:15;;;;;;;4.63;1.25;;;;;;;5.46;81.28;101034.34;5095248;27;96796;-35
2022/04/04 08:46:42;;;;;;;1.58;1.13;;;;;;;5.42;81.23;101008.50;5076303;27;101110;-35
2022/04/04 08:49:08;;;;;;;2.28;1.35;;;;;;;5.51;81.35;101026.97;5076196;27;100810;-35
2022/04/04 08:51:35;;;;;;;2.47;1.45;;;;;;;5.48;81.14;101024.41;5094413;27;96559;-35
2022/04/04 08:54:01;;;;;;;2.13;1.55;;;;;;;5.46;81.14;101001.22;5076359;27;96772;-35
2022/04/04 08:56:27;;;;;;;1.52;1.02;;;;;;;5.51;82.20;101007.31;5076047;27;100917;-35
2022/04/04 08:58:54;;;;;;;2.55;1.13;;;;;;;5.54;81.67;101015.25;5094591;27;98678;-35
2022/04/04 09:01:21;;;;;;;2.10;1.13;;;;;;;5.57;81.68;101019.63;5075990;27;96585;-35
2022/04/04 09:04:01;;;;;;;2.88;1.30;;;;;;;5.56;82.72;101017.88;5059336;27;96755;-35
2022/04/04 09:06:28;;;;;;;2.92;0.60;;;;;;;5.56;82.79;101010.69;5094551;27;102588;-35
2022/04/04 09:08:55;;;;;;;3.05;1.73;;;;;;;5.57;82.55;101011.56;5076371;27;100990;-35
2022/04/04 09:11:20;;;;;;;1.60;0.90;;;;;;;5.57;83.33;101011.56;5094059;27;96714;-35
2022/04/04 09:14:02;;;;;;;2.28;1.05;;;;;;;5.60;83.26;101000.69;5094208;27;96862;-35
2022/04/04 09:16:28;;;;;;;2.25;0.63;;;;;;;5.54;83.59;100997.31;5093805;27;99065;-35
2022/04/04 09:18:53;;;;;;;1.63;0.82;;;;;;;5.63;83.11;101005.97;5094062;27;110930;-35
2022/04/04 09:21:18;;;;;;;1.55;0.77;;;;;;;5.67;83.80;100994.13;5094632;27;96556;-35
2022/04/04 09:23:47;;;;;;;0.90;0.40;;;;;;;5.70;84.47;100988.66;5094210;27;103587;-35
2022/04/04 09:26:28;;;;;;;2.47;1.05;;;;;;;5.66;83.63;100995.94;5094165;27;98052;-35
2022/04/04 09:28:53;;;;;;;2.72;1.45;;;;;;;5.67;82.74;100983.38;5094366;27;98513;-35
2022/04/04 09:31:31;;;;;;;2.88;1.38;;;;;;;5.66;83.78;100978.97;5075777;27;96634;-35
2022/04/04 09:34:05;;;;;;;3.17;1.77;;;;;;;5.70;83.84;100984.16;5094556;27;96840;-35
2022/04/04 09:36:31;;;;;;;3.40;1.60;;;;;;;5.70;84.01;100976.09;5075558;27;100811;-35
2022/04/04 09:39:05;;;;;;;2.90;1.70;;;;;;;5.75;84.05;100974.09;5094205;27;97854;-35
2022/04/04 09:41:40;;;;;;;1.92;0.75;;;;;;;5.78;83.97;100967.72;5075089;27;97089;-35
2022/04/04 09:44:08;;;;;;;2.85;1.15;;;;;;;5.79;83.93;100968.59;5075519;27;96812;-35
2022/04/04 09:46:39;;;;;;;0.52;0.40;;;;;;;5.77;84.51;100944.47;5075340;27;100966;-35
2022/04/04 09:49:16;;;;;;;1.45;0.85;;;;;;;5.85;84.60;100952.22;5075154;27;101028;-35
2022/04/04 09:51:50;;;;;;;8.85;0.70;;;;;;;5.87;83.92;100959.28;5093719;27;96688;-35
2022/04/04 09:54:26;;;;;;;2.30;1.00;;;;;;;5.86;84.17;100943.22;5094162;27;96492;-35
2022/04/04 09:57:08;;;;;;;2.95;0.52;;;;;;;5.84;84.51;100937.91;5093732;27;99891;-35
2022/04/04 09:59:35;;;;;;;;;;;;;;;5.89;84.90;100946.66;5075998;27;100937;-35
2022/04/04 10:02:02;;;;;;;2.20;0.28;;;;;;;5.90;85.27;100940.34;5075315;27;96722;-35
2022/04/04 10:04:28;;;;;;;2.25;1.15;;;;;;;5.84;84.34;100934.34;5074972;27;97384;-35
2022/04/04 10:06:54;;;;;;;0.40;0.15;;;;;;;5.90;84.20;100940.34;5057483;27;100918;-35
2022/04/04 10:09:19;;;;;;;1.00;0.70;;;;;;;5.91;84.68;100951.97;5093865;27;97351;-35
2022/04/04 10:11:46;;;;;;;0.85;0.63;;;;;;;5.94;84.38;100938.44;5093457;27;96741;-35
2022/04/04 10:14:15;;;;;;;1.67;1.13;;;;;;;5.89;84.43;100938.59;5074903;27;96975;-35
2022/04/04 10:16:41;;;;;;;4.10;1.38;;;;;;;5.91;85.04;100934.03;5075004;27;99969;-35
2022/04/04 10:19:11;;;;;;;3.95;1.60;;;;;;;5.85;85.19;100928.91;5093556;27;97765;-35
2022/04/04 10:21:37;;;;;;;4.70;0.50;;;;;;;5.87;85.36;100918.97;5093496;27;96676;-35
2022/04/04 10:24:06;;;;;;;4.10;1.83;;;;;;;5.89;85.16;100919.78;5075368;27;96767;-35
2022/04/04 10:26:34;;;;;;;2.88;1.80;;;;;;;5.84;84.22;100915.50;5093045;27;98013;-35
2022/04/04 10:29:12;;;;;;;2.00;1.40;;;;;;;5.91;84.87;100919.69;5074670;27;100809;-35
2022/04/04 10:31:52;;;;;;;2.05;1.23;;;;;;;5.88;86.05;100907.25;5074304;27;97033;-35
2022/04/04 10:34:19;;;;;;;1.15;0.98;;;;;;;5.94;85.66;100915.13;5057939;27;96818;-35
2022/04/04 10:37:06;;;;;;;2.45;1.75;;;;;;;5.89;85.52;100916.22;5078162;27;101205;-35
2022/04/04 10:39:33;;;;;;;2.10;1.27;;;;;;;5.97;84.73;100894.44;5081469;27;100746;-35
2022/04/04 10:41:59;;;;;;;3.20;2.17;;;;;;;5.98;85.42;100899.72;5081448;27;97370;-35
2022/04/04 10:44:45;;;;;;;1.55;1.08;;;;;;;5.99;84.71;100887.19;5100396;27;96725;-35
2022/04/04 10:47:24;;;;;;;0.80;0.80;;;;;;;6.01;86.55;100899.63;5081345;27;101073;-35
2022/04/04 10:49:50;;;;;;;2.78;1.77;;;;;;;6.05;85.24;100893.16;5081652;27;100536;-35
2022/04/04 10:52:21;;;;;;;2.17;1.48;;;;;;;6.01;85.20;100879.94;5081190;27;96827;-35
2022/04/04 10:54:47;;;;;;;1.77;1.45;;;;;;;6.03;85.19;100869.97;5081424;27;96888;-35
2022/04/04 10:57:17;;;;;;;3.10;1.65;;;;;;;6.06;85.20;100878.78;5099304;27;99519;-35
2022/04/04 10:59:56;;;;;;;2.08;1.48;;;;;;;6.08;86.08;100873.34;5081275;27;100803;-35
2022/04/04 11:02:25;;;;;;;3.58;1.63;;;;;;;6.11;85.88;100867.84;5081273;27;96683;-35
2022/04/04 11:07:41;;;;;;;2.80;2.30;;;;;;;6.19;86.84;100868.38;5100087;27;97067;-35
2022/04/04 11:10:09;;;;;;;1.23;1.05;;;;;;;6.21;86.60;100873.69;5099946;27;97679;-35
2022/04/04 11:12:57;;;;;;;5.38;2.10;;;;;;;6.23;86.58;100869.13;5080958;27;96622;-35
2022/04/04 11:15:42;;;;;;;0.93;0.85;;;;;;;6.29;87.26;100866.16;5081489;27;97532;-35
2022/04/04 11:18:09;;;;;;;2.13;0.98;;;;;;;6.31;87.31;100859.75;5081037;27;100983;-35
2022/04/04 11:20:36;;;;;;;1.00;0.90;;;;;;;6.38;86.15;100868.44;5099561;27;97843;-35
2022/04/04 11:23:10;;;;;;;0.68;0.57;;;;;;;6.39;86.51;100856.75;5099261;27;96585;-34
2022/04/04 11:25:38;;;;;;;1.00;0.93;;;;;;;6.45;86.51;100847.53;5081056;27;96880;-34
2022/04/04 11:28:05;;;;;;;5.43;1.33;;;;;;;6.49;86.86;100847.31;5099434;27;99371;-35
2022/04/04 11:30:42;;;;;;;1.60;1.30;;;;;;;6.49;86.89;100838.38;5081252;27;97991;-34
2022/04/04 11:33:12;;;;;;;8.63;1.60;;;;;;;6.49;85.49;100824.94;5098811;27;119382;-35
2022/04/04 11:35:37;;;;;;;1.77;1.17;;;;;;;6.59;87.50;100834.34;5099544;27;96791;-35
2022/04/04 11:38:12;;;;;;;1.88;0.93;;;;;;;6.63;86.46;100837.78;5080789;27;101196;-35